sensor_id;sensor_type;location;lat;lon;timestamp;P1;durP1;ratioP1;P2;durP2;ratioP2
13204;SDS011;6667;52.634;9.226;2023-04-25T04:33:48;9.00;;;3.70;;
13204;SDS011;6667;52.634;9.226;2023-04-25T04:36:22;19.90;;;4.70;;
13204;SDS011;6667;52.634;9.226;2023-04-25T04:41:38;10.40;;;4.03;;
13204;SDS011;6667;52.634;9.226;2023-04-25T04:44:09;13.10;;;3.53;;
13204;SDS011;6667;52.634;9.226;2023-04-25T04:47:24;12.50;;;3.73;;
13204;SDS011;6667;52.634;9.226;2023-04-25T04:50:05;9.10;;;4.00;;
13204;SDS011;6667;52.634;9.226;2023-04-25T04:52:50;8.93;;;4.07;;
13204;SDS011;6667;52.634;9.226;2023-04-25T04:55:27;9.23;;;4.33;;
13204;SDS011;6667;52.634;9.226;2023-04-25T05:00:49;12.30;;;3.83;;
13204;SDS011;6667;52.634;9.226;2023-04-25T05:03:27;11.77;;;3.53;;
13204;SDS011;6667;52.634;9.226;2023-04-25T05:08:39;12.13;;;4.10;;
13204;SDS011;6667;52.634;9.226;2023-04-25T05:11:10;13.80;;;3.90;;
13204;SDS011;6667;52.634;9.226;2023-04-25T05:13:58;8.27;;;3.33;;
13204;SDS011;6667;52.634;9.226;2023-04-25T05:22:43;9.27;;;4.47;;
13204;SDS011;6667;52.634;9.226;2023-04-25T05:28:47;10.90;;;4.30;;
13204;SDS011;6667;52.634;9.226;2023-04-25T05:31:17;14.70;;;4.93;;
13204;SDS011;6667;52.634;9.226;2023-04-25T05:33:59;11.87;;;3.90;;
13204;SDS011;6667;52.634;9.226;2023-04-25T05:36:27;10.97;;;3.73;;
13204;SDS011;6667;52.634;9.226;2023-04-25T05:38:59;10.33;;;3.33;;
13204;SDS011;6667;52.634;9.226;2023-04-25T05:45:04;13.63;;;3.87;;
13204;SDS011;6667;52.634;9.226;2023-04-25T05:47:44;14.03;;;3.73;;
13204;SDS011;6667;52.634;9.226;2023-04-25T05:50:12;15.53;;;4.07;;
13204;SDS011;6667;52.634;9.226;2023-04-25T05:52:41;10.53;;;4.07;;
13204;SDS011;6667;52.634;9.226;2023-04-25T05:55:28;13.83;;;4.07;;
13204;SDS011;6667;52.634;9.226;2023-04-25T05:58:01;6.77;;;3.37;;
13204;SDS011;6667;52.634;9.226;2023-04-25T06:00:31;10.50;;;3.67;;
13204;SDS011;6667;52.634;9.226;2023-04-25T06:03:12;14.03;;;3.60;;
13204;SDS011;6667;52.634;9.226;2023-04-25T06:05:45;8.67;;;2.73;;
13204;SDS011;6667;52.634;9.226;2023-04-25T06:12:05;7.97;;;2.97;;
13204;SDS011;6667;52.634;9.226;2023-04-25T06:14:33;10.87;;;3.70;;
13204;SDS011;6667;52.634;9.226;2023-04-25T06:17:03;12.83;;;4.57;;
13204;SDS011;6667;52.634;9.226;2023-04-25T06:19:54;11.43;;;3.77;;
13204;SDS011;6667;52.634;9.226;2023-04-25T06:22:24;10.67;;;3.23;;
13204;SDS011;6667;52.634;9.226;2023-04-25T06:24:54;12.60;;;3.07;;
13204;SDS011;6667;52.634;9.226;2023-04-25T06:27:28;11.47;;;3.60;;
13204;SDS011;6667;52.634;9.226;2023-04-25T06:33:14;10.33;;;3.10;;
13204;SDS011;6667;52.634;9.226;2023-04-25T06:35:41;11.87;;;3.33;;
13204;SDS011;6667;52.634;9.226;2023-04-25T06:38:18;8.27;;;3.60;;
13204;SDS011;6667;52.634;9.226;2023-04-25T06:40:59;8.17;;;2.90;;
13204;SDS011;6667;52.634;9.226;2023-04-25T06:46:52;13.27;;;3.90;;
13204;SDS011;6667;52.634;9.226;2023-04-25T06:52:59;6.17;;;2.90;;
13204;SDS011;6667;52.634;9.226;2023-04-25T06:55:40;8.37;;;3.03;;
13204;SDS011;6667;52.634;9.226;2023-04-25T07:04:11;7.57;;;3.13;;
13204;SDS011;6667;52.634;9.226;2023-04-25T07:06:53;9.63;;;3.03;;
13204;SDS011;6667;52.634;9.226;2023-04-25T07:12:52;10.23;;;2.70;;
13204;SDS011;6667;52.634;9.226;2023-04-25T07:15:22;7.50;;;2.57;;
13204;SDS011;6667;52.634;9.226;2023-04-25T07:17:50;13.53;;;3.37;;
13204;SDS011;6667;52.634;9.226;2023-04-25T07:20:17;9.70;;;3.03;;
13204;SDS011;6667;52.634;9.226;2023-04-25T07:25:30;10.23;;;2.70;;
13204;SDS011;6667;52.634;9.226;2023-04-25T07:31:44;8.17;;;3.40;;
13204;SDS011;6667;52.634;9.226;2023-04-25T07:34:44;5.13;;;2.57;;
13204;SDS011;6667;52.634;9.226;2023-04-25T07:37:11;6.93;;;3.13;;
13204;SDS011;6667;52.634;9.226;2023-04-25T07:39:43;7.07;;;2.23;;
13204;SDS011;6667;52.634;9.226;2023-04-25T07:44:56;8.03;;;2.30;;
13204;SDS011;6667;52.634;9.226;2023-04-25T07:47:26;7.13;;;2.50;;
13204;SDS011;6667;52.634;9.226;2023-04-25T07:49:53;6.90;;;2.33;;
13204;SDS011;6667;52.634;9.226;2023-04-25T07:52:21;10.40;;;2.40;;
13204;SDS011;6667;52.634;9.226;2023-04-25T07:54:48;7.17;;;2.00;;
13204;SDS011;6667;52.634;9.226;2023-04-25T07:57:17;7.53;;;2.20;;
13204;SDS011;6667;52.634;9.226;2023-04-25T07:59:45;7.43;;;1.90;;
13204;SDS011;6667;52.634;9.226;2023-04-25T08:02:16;5.03;;;2.07;;
13204;SDS011;6667;52.634;9.226;2023-04-25T08:04:45;5.93;;;2.30;;
13204;SDS011;6667;52.634;9.226;2023-04-25T08:07:20;7.27;;;1.97;;
13204;SDS011;6667;52.634;9.226;2023-04-25T08:16:15;5.80;;;1.93;;
13204;SDS011;6667;52.634;9.226;2023-04-25T08:18:58;8.63;;;2.50;;
13204;SDS011;6667;52.634;9.226;2023-04-25T08:28:38;3.70;;;1.70;;
13204;SDS011;6667;52.634;9.226;2023-04-25T08:31:08;8.30;;;2.00;;
13204;SDS011;6667;52.634;9.226;2023-04-25T08:33:36;8.87;;;1.60;;
13204;SDS011;6667;52.634;9.226;2023-04-25T08:36:07;6.63;;;1.90;;
13204;SDS011;6667;52.634;9.226;2023-04-25T08:41:47;7.53;;;1.93;;
13204;SDS011;6667;52.634;9.226;2023-04-25T08:47:58;5.33;;;1.87;;
13204;SDS011;6667;52.634;9.226;2023-04-25T08:50:30;4.17;;;1.73;;
13204;SDS011;6667;52.634;9.226;2023-04-25T08:53:08;3.47;;;1.40;;
13204;SDS011;6667;52.634;9.226;2023-04-25T08:58:54;4.33;;;1.70;;
13204;SDS011;6667;52.634;9.226;2023-04-25T09:01:22;2.67;;;1.57;;
13204;SDS011;6667;52.634;9.226;2023-04-25T09:03:50;3.03;;;1.43;;
13204;SDS011;6667;52.634;9.226;2023-04-25T09:06:17;4.27;;;1.70;;
13204;SDS011;6667;52.634;9.226;2023-04-25T09:08:45;3.33;;;1.40;;
13204;SDS011;6667;52.634;9.226;2023-04-25T09:11:12;2.57;;;1.60;;
13204;SDS011;6667;52.634;9.226;2023-04-25T09:13:39;5.03;;;2.37;;
13204;SDS011;6667;52.634;9.226;2023-04-25T09:16:06;4.47;;;1.40;;
13204;SDS011;6667;52.634;9.226;2023-04-25T09:18:33;4.03;;;1.70;;
13204;SDS011;6667;52.634;9.226;2023-04-25T09:21:06;5.37;;;1.80;;
13204;SDS011;6667;52.634;9.226;2023-04-25T09:23:38;6.43;;;1.70;;
13204;SDS011;6667;52.634;9.226;2023-04-25T09:26:06;4.20;;;1.40;;
13204;SDS011;6667;52.634;9.226;2023-04-25T09:28:34;5.93;;;2.03;;
13204;SDS011;6667;52.634;9.226;2023-04-25T09:31:02;4.83;;;1.67;;
13204;SDS011;6667;52.634;9.226;2023-04-25T09:33:29;4.57;;;1.80;;
13204;SDS011;6667;52.634;9.226;2023-04-25T09:36:01;6.57;;;1.73;;
13204;SDS011;6667;52.634;9.226;2023-04-25T09:38:31;2.03;;;1.00;;
13204;SDS011;6667;52.634;9.226;2023-04-25T09:40:58;3.50;;;1.40;;
13204;SDS011;6667;52.634;9.226;2023-04-25T09:43:25;4.17;;;1.40;;
13204;SDS011;6667;52.634;9.226;2023-04-25T09:45:53;7.37;;;1.63;;
13204;SDS011;6667;52.634;9.226;2023-04-25T09:48:22;2.83;;;1.40;;
13204;SDS011;6667;52.634;9.226;2023-04-25T09:51:03;4.47;;;1.50;;
13204;SDS011;6667;52.634;9.226;2023-04-25T09:53:32;4.83;;;1.63;;
13204;SDS011;6667;52.634;9.226;2023-04-25T09:56:00;3.87;;;1.60;;
13204;SDS011;6667;52.634;9.226;2023-04-25T09:58:31;3.60;;;1.20;;
13204;SDS011;6667;52.634;9.226;2023-04-25T10:00:59;3.93;;;1.00;;
13204;SDS011;6667;52.634;9.226;2023-04-25T10:03:27;2.53;;;1.00;;
13204;SDS011;6667;52.634;9.226;2023-04-25T10:05:56;4.13;;;1.47;;
13204;SDS011;6667;52.634;9.226;2023-04-25T10:08:25;2.40;;;1.20;;
13204;SDS011;6667;52.634;9.226;2023-04-25T10:10:57;4.03;;;1.47;;
13204;SDS011;6667;52.634;9.226;2023-04-25T10:13:26;4.90;;;1.80;;
13204;SDS011;6667;52.634;9.226;2023-04-25T10:15:54;5.07;;;1.30;;
13204;SDS011;6667;52.634;9.226;2023-04-25T10:18:22;3.07;;;1.67;;
13204;SDS011;6667;52.634;9.226;2023-04-25T10:20:50;3.53;;;1.53;;
13204;SDS011;6667;52.634;9.226;2023-04-25T10:23:17;2.57;;;1.20;;
13204;SDS011;6667;52.634;9.226;2023-04-25T10:25:44;7.30;;;1.53;;
13204;SDS011;6667;52.634;9.226;2023-04-25T10:28:12;6.60;;;1.60;;
13204;SDS011;6667;52.634;9.226;2023-04-25T10:30:48;3.13;;;1.80;;
13204;SDS011;6667;52.634;9.226;2023-04-25T10:33:29;6.03;;;1.63;;
13204;SDS011;6667;52.634;9.226;2023-04-25T10:35:58;4.20;;;1.80;;
13204;SDS011;6667;52.634;9.226;2023-04-25T10:38:24;2.97;;;1.07;;
13204;SDS011;6667;52.634;9.226;2023-04-25T10:41:02;1.70;;;0.90;;
13204;SDS011;6667;52.634;9.226;2023-04-25T10:43:34;2.63;;;0.80;;
13204;SDS011;6667;52.634;9.226;2023-04-25T10:46:15;2.70;;;1.10;;
13204;SDS011;6667;52.634;9.226;2023-04-25T10:48:48;2.50;;;1.03;;
13204;SDS011;6667;52.634;9.226;2023-04-25T10:51:16;2.37;;;1.17;;
13204;SDS011;6667;52.634;9.226;2023-04-25T10:53:56;2.43;;;0.87;;
13204;SDS011;6667;52.634;9.226;2023-04-25T10:56:25;1.90;;;0.63;;
13204;SDS011;6667;52.634;9.226;2023-04-25T10:58:53;3.67;;;1.10;;
13204;SDS011;6667;52.634;9.226;2023-04-25T11:01:35;3.40;;;0.80;;
13204;SDS011;6667;52.634;9.226;2023-04-25T11:04:02;2.50;;;0.80;;
13204;SDS011;6667;52.634;9.226;2023-04-25T11:06:31;2.60;;;1.03;;
13204;SDS011;6667;52.634;9.226;2023-04-25T11:09:03;4.47;;;1.20;;
13204;SDS011;6667;52.634;9.226;2023-04-25T11:11:38;2.87;;;1.00;;
13204;SDS011;6667;52.634;9.226;2023-04-25T11:14:06;3.17;;;1.20;;
13204;SDS011;6667;52.634;9.226;2023-04-25T11:16:33;1.83;;;1.23;;
13204;SDS011;6667;52.634;9.226;2023-04-25T11:19:01;3.87;;;1.10;;
13204;SDS011;6667;52.634;9.226;2023-04-25T11:21:27;2.13;;;1.10;;
13204;SDS011;6667;52.634;9.226;2023-04-25T11:23:56;3.07;;;1.10;;
13204;SDS011;6667;52.634;9.226;2023-04-25T11:26:23;5.00;;;1.37;;
13204;SDS011;6667;52.634;9.226;2023-04-25T11:28:50;2.10;;;1.00;;
13204;SDS011;6667;52.634;9.226;2023-04-25T11:31:20;3.97;;;1.00;;
13204;SDS011;6667;52.634;9.226;2023-04-25T11:33:47;4.30;;;1.50;;
13204;SDS011;6667;52.634;9.226;2023-04-25T11:36:14;5.30;;;1.50;;
13204;SDS011;6667;52.634;9.226;2023-04-25T11:38:41;1.43;;;0.80;;
13204;SDS011;6667;52.634;9.226;2023-04-25T11:41:07;1.40;;;0.83;;
13204;SDS011;6667;52.634;9.226;2023-04-25T11:43:34;3.03;;;1.03;;
13204;SDS011;6667;52.634;9.226;2023-04-25T11:46:00;1.47;;;0.70;;
13204;SDS011;6667;52.634;9.226;2023-04-25T11:48:37;1.63;;;0.70;;
13204;SDS011;6667;52.634;9.226;2023-04-25T11:51:04;3.33;;;1.00;;
13204;SDS011;6667;52.634;9.226;2023-04-25T11:53:31;3.57;;;1.10;;
13204;SDS011;6667;52.634;9.226;2023-04-25T11:55:57;1.87;;;1.27;;
13204;SDS011;6667;52.634;9.226;2023-04-25T11:58:24;1.97;;;1.00;;
13204;SDS011;6667;52.634;9.226;2023-04-25T12:00:51;3.03;;;1.00;;
13204;SDS011;6667;52.634;9.226;2023-04-25T12:03:18;1.37;;;0.60;;
13204;SDS011;6667;52.634;9.226;2023-04-25T12:05:48;2.10;;;0.80;;
13204;SDS011;6667;52.634;9.226;2023-04-25T12:08:15;1.47;;;1.00;;
13204;SDS011;6667;52.634;9.226;2023-04-25T12:10:45;2.57;;;1.00;;
13204;SDS011;6667;52.634;9.226;2023-04-25T12:13:19;2.10;;;1.37;;
13204;SDS011;6667;52.634;9.226;2023-04-25T12:15:47;2.73;;;0.70;;
13204;SDS011;6667;52.634;9.226;2023-04-25T12:18:13;3.20;;;1.20;;
13204;SDS011;6667;52.634;9.226;2023-04-25T12:20:41;1.07;;;0.70;;
13204;SDS011;6667;52.634;9.226;2023-04-25T12:23:09;4.17;;;1.30;;
13204;SDS011;6667;52.634;9.226;2023-04-25T12:25:37;1.57;;;1.10;;
13204;SDS011;6667;52.634;9.226;2023-04-25T12:28:09;4.67;;;1.20;;
13204;SDS011;6667;52.634;9.226;2023-04-25T12:30:52;3.60;;;0.90;;
13204;SDS011;6667;52.634;9.226;2023-04-25T12:33:21;3.40;;;1.10;;
13204;SDS011;6667;52.634;9.226;2023-04-25T12:35:48;2.53;;;1.00;;
13204;SDS011;6667;52.634;9.226;2023-04-25T12:38:25;3.70;;;1.43;;
13204;SDS011;6667;52.634;9.226;2023-04-25T12:40:54;2.27;;;1.00;;
13204;SDS011;6667;52.634;9.226;2023-04-25T12:43:22;3.30;;;1.03;;
13204;SDS011;6667;52.634;9.226;2023-04-25T12:45:49;5.73;;;1.70;;
13204;SDS011;6667;52.634;9.226;2023-04-25T12:48:16;6.27;;;1.43;;
13204;SDS011;6667;52.634;9.226;2023-04-25T12:50:42;4.37;;;1.30;;
13204;SDS011;6667;52.634;9.226;2023-04-25T12:53:10;4.57;;;1.10;;
13204;SDS011;6667;52.634;9.226;2023-04-25T12:55:38;1.93;;;1.27;;
13204;SDS011;6667;52.634;9.226;2023-04-25T12:58:05;4.73;;;1.30;;
13204;SDS011;6667;52.634;9.226;2023-04-25T13:00:32;2.77;;;1.00;;
13204;SDS011;6667;52.634;9.226;2023-04-25T13:02:59;3.43;;;1.37;;
13204;SDS011;6667;52.634;9.226;2023-04-25T13:05:25;2.20;;;1.10;;
13204;SDS011;6667;52.634;9.226;2023-04-25T13:07:52;4.00;;;1.00;;
13204;SDS011;6667;52.634;9.226;2023-04-25T13:10:19;4.30;;;0.90;;
13204;SDS011;6667;52.634;9.226;2023-04-25T13:12:47;1.80;;;1.07;;
13204;SDS011;6667;52.634;9.226;2023-04-25T13:15:14;2.30;;;1.37;;
13204;SDS011;6667;52.634;9.226;2023-04-25T13:17:41;1.83;;;1.03;;
13204;SDS011;6667;52.634;9.226;2023-04-25T13:20:08;7.03;;;2.53;;
13204;SDS011;6667;52.634;9.226;2023-04-25T13:22:36;3.77;;;1.10;;
13204;SDS011;6667;52.634;9.226;2023-04-25T13:25:04;2.90;;;1.10;;
13204;SDS011;6667;52.634;9.226;2023-04-25T13:27:31;4.47;;;1.50;;
13204;SDS011;6667;52.634;9.226;2023-04-25T13:30:00;5.47;;;1.30;;
13204;SDS011;6667;52.634;9.226;2023-04-25T13:32:32;2.50;;;1.07;;
13204;SDS011;6667;52.634;9.226;2023-04-25T13:34:58;1.30;;;1.00;;
13204;SDS011;6667;52.634;9.226;2023-04-25T13:37:25;2.90;;;0.80;;
13204;SDS011;6667;52.634;9.226;2023-04-25T13:39:52;2.87;;;1.10;;
13204;SDS011;6667;52.634;9.226;2023-04-25T13:42:20;2.60;;;1.10;;
13204;SDS011;6667;52.634;9.226;2023-04-25T13:44:46;4.27;;;1.27;;
13204;SDS011;6667;52.634;9.226;2023-04-25T13:47:14;3.67;;;1.47;;
13204;SDS011;6667;52.634;9.226;2023-04-25T13:49:41;3.27;;;1.17;;
13204;SDS011;6667;52.634;9.226;2023-04-25T13:52:08;3.77;;;1.30;;
13204;SDS011;6667;52.634;9.226;2023-04-25T13:54:34;1.77;;;1.30;;
13204;SDS011;6667;52.634;9.226;2023-04-25T13:57:01;0.97;;;0.80;;
13204;SDS011;6667;52.634;9.226;2023-04-25T13:59:28;2.23;;;1.10;;
13204;SDS011;6667;52.634;9.226;2023-04-25T14:01:54;2.67;;;1.00;;
13204;SDS011;6667;52.634;9.226;2023-04-25T14:04:22;2.53;;;1.20;;
13204;SDS011;6667;52.634;9.226;2023-04-25T14:06:50;3.57;;;1.10;;
13204;SDS011;6667;52.634;9.226;2023-04-25T14:09:17;1.43;;;0.80;;
13204;SDS011;6667;52.634;9.226;2023-04-25T14:11:45;2.00;;;1.20;;
13204;SDS011;6667;52.634;9.226;2023-04-25T14:14:12;2.20;;;1.07;;
13204;SDS011;6667;52.634;9.226;2023-04-25T14:16:41;4.57;;;1.40;;
13204;SDS011;6667;52.634;9.226;2023-04-25T14:19:08;4.40;;;1.27;;
13204;SDS011;6667;52.634;9.226;2023-04-25T14:21:35;3.43;;;1.50;;
13204;SDS011;6667;52.634;9.226;2023-04-25T14:24:02;3.57;;;2.00;;
13204;SDS011;6667;52.634;9.226;2023-04-25T14:26:29;4.57;;;1.47;;
13204;SDS011;6667;52.634;9.226;2023-04-25T14:28:56;2.67;;;1.50;;
13204;SDS011;6667;52.634;9.226;2023-04-25T14:31:23;4.63;;;1.47;;
13204;SDS011;6667;52.634;9.226;2023-04-25T14:33:49;3.03;;;1.20;;
13204;SDS011;6667;52.634;9.226;2023-04-25T14:36:16;2.70;;;1.30;;
13204;SDS011;6667;52.634;9.226;2023-04-25T14:38:44;4.73;;;1.33;;
13204;SDS011;6667;52.634;9.226;2023-04-25T14:41:10;3.53;;;1.20;;
13204;SDS011;6667;52.634;9.226;2023-04-25T14:43:37;2.27;;;1.20;;
13204;SDS011;6667;52.634;9.226;2023-04-25T14:46:04;4.53;;;1.30;;
13204;SDS011;6667;52.634;9.226;2023-04-25T14:48:31;1.87;;;1.30;;
13204;SDS011;6667;52.634;9.226;2023-04-25T14:50:58;3.67;;;1.47;;
13204;SDS011;6667;52.634;9.226;2023-04-25T14:53:25;2.57;;;1.57;;
13204;SDS011;6667;52.634;9.226;2023-04-25T14:55:54;3.30;;;1.30;;
13204;SDS011;6667;52.634;9.226;2023-04-25T14:58:21;5.33;;;1.67;;
13204;SDS011;6667;52.634;9.226;2023-04-25T15:00:47;2.97;;;1.40;;
13204;SDS011;6667;52.634;9.226;2023-04-25T15:03:14;3.57;;;1.67;;
13204;SDS011;6667;52.634;9.226;2023-04-25T15:05:42;1.83;;;1.00;;
13204;SDS011;6667;52.634;9.226;2023-04-25T15:08:08;3.57;;;1.13;;
13204;SDS011;6667;52.634;9.226;2023-04-25T15:10:36;2.37;;;1.30;;
13204;SDS011;6667;52.634;9.226;2023-04-25T15:13:04;4.37;;;1.40;;
13204;SDS011;6667;52.634;9.226;2023-04-25T15:15:30;3.30;;;1.30;;
13204;SDS011;6667;52.634;9.226;2023-04-25T15:17:57;3.57;;;1.07;;
13204;SDS011;6667;52.634;9.226;2023-04-25T15:20:25;3.67;;;1.17;;
13204;SDS011;6667;52.634;9.226;2023-04-25T15:22:52;2.33;;;1.00;;
13204;SDS011;6667;52.634;9.226;2023-04-25T15:25:19;1.50;;;1.23;;
13204;SDS011;6667;52.634;9.226;2023-04-25T15:27:46;2.63;;;1.00;;
13204;SDS011;6667;52.634;9.226;2023-04-25T15:30:15;1.37;;;0.97;;
13204;SDS011;6667;52.634;9.226;2023-04-25T15:32:42;3.90;;;1.00;;
13204;SDS011;6667;52.634;9.226;2023-04-25T15:35:10;3.53;;;1.40;;
13204;SDS011;6667;52.634;9.226;2023-04-25T15:37:37;1.37;;;0.80;;
13204;SDS011;6667;52.634;9.226;2023-04-25T15:40:05;5.27;;;2.17;;
13204;SDS011;6667;52.634;9.226;2023-04-25T15:42:34;2.67;;;1.30;;
13204;SDS011;6667;52.634;9.226;2023-04-25T15:45:01;3.03;;;1.37;;
13204;SDS011;6667;52.634;9.226;2023-04-25T15:47:29;3.87;;;1.00;;
13204;SDS011;6667;52.634;9.226;2023-04-25T15:49:56;3.27;;;1.40;;
13204;SDS011;6667;52.634;9.226;2023-04-25T15:52:23;5.23;;;1.40;;
13204;SDS011;6667;52.634;9.226;2023-04-25T15:54:50;2.83;;;1.33;;
13204;SDS011;6667;52.634;9.226;2023-04-25T15:57:16;2.43;;;0.80;;
13204;SDS011;6667;52.634;9.226;2023-04-25T15:59:43;3.57;;;1.20;;
13204;SDS011;6667;52.634;9.226;2023-04-25T16:02:11;4.67;;;1.20;;
13204;SDS011;6667;52.634;9.226;2023-04-25T16:04:40;2.80;;;1.40;;
13204;SDS011;6667;52.634;9.226;2023-04-25T16:07:06;2.70;;;1.37;;
13204;SDS011;6667;52.634;9.226;2023-04-25T16:09:33;3.33;;;1.43;;
13204;SDS011;6667;52.634;9.226;2023-04-25T16:12:00;2.97;;;1.60;;
13204;SDS011;6667;52.634;9.226;2023-04-25T16:14:27;5.37;;;1.60;;
13204;SDS011;6667;52.634;9.226;2023-04-25T16:16:54;5.37;;;2.13;;
13204;SDS011;6667;52.634;9.226;2023-04-25T16:19:21;4.70;;;1.57;;
13204;SDS011;6667;52.634;9.226;2023-04-25T16:21:49;2.93;;;1.40;;
13204;SDS011;6667;52.634;9.226;2023-04-25T16:24:16;3.93;;;1.27;;
13204;SDS011;6667;52.634;9.226;2023-04-25T16:26:42;5.93;;;1.53;;
13204;SDS011;6667;52.634;9.226;2023-04-25T16:29:09;6.07;;;1.47;;
13204;SDS011;6667;52.634;9.226;2023-04-25T16:31:38;4.17;;;1.27;;
13204;SDS011;6667;52.634;9.226;2023-04-25T16:34:05;4.50;;;1.20;;
13204;SDS011;6667;52.634;9.226;2023-04-25T16:36:32;6.13;;;1.43;;
13204;SDS011;6667;52.634;9.226;2023-04-25T16:39:01;3.43;;;1.40;;
13204;SDS011;6667;52.634;9.226;2023-04-25T16:41:27;2.70;;;1.10;;
13204;SDS011;6667;52.634;9.226;2023-04-25T16:43:54;2.40;;;1.40;;
13204;SDS011;6667;52.634;9.226;2023-04-25T16:46:21;4.40;;;1.07;;
13204;SDS011;6667;52.634;9.226;2023-04-25T16:48:48;4.40;;;1.67;;
13204;SDS011;6667;52.634;9.226;2023-04-25T16:51:17;4.00;;;1.50;;
13204;SDS011;6667;52.634;9.226;2023-04-25T16:53:48;2.37;;;1.20;;
13204;SDS011;6667;52.634;9.226;2023-04-25T16:56:25;7.23;;;1.63;;
13204;SDS011;6667;52.634;9.226;2023-04-25T16:59:03;5.03;;;1.60;;
13204;SDS011;6667;52.634;9.226;2023-04-25T17:03:24;4.90;;;1.40;;
13204;SDS011;6667;52.634;9.226;2023-04-25T17:05:24;3.73;;;1.77;;
13204;SDS011;6667;52.634;9.226;2023-04-25T17:07:59;1.90;;;1.33;;
13204;SDS011;6667;52.634;9.226;2023-04-25T17:10:39;2.93;;;1.43;;
13204;SDS011;6667;52.634;9.226;2023-04-25T17:13:27;2.70;;;1.07;;
13204;SDS011;6667;52.634;9.226;2023-04-25T17:16:00;4.37;;;1.70;;
13204;SDS011;6667;52.634;9.226;2023-04-25T17:22:22;5.83;;;1.83;;
13204;SDS011;6667;52.634;9.226;2023-04-25T17:28:47;4.17;;;2.17;;
13204;SDS011;6667;52.634;9.226;2023-04-25T17:34:02;6.50;;;1.47;;
13204;SDS011;6667;52.634;9.226;2023-04-25T17:36:43;5.20;;;1.60;;
13204;SDS011;6667;52.634;9.226;2023-04-25T17:42:52;3.97;;;1.43;;
13204;SDS011;6667;52.634;9.226;2023-04-25T17:45:32;4.60;;;1.83;;
13204;SDS011;6667;52.634;9.226;2023-04-25T17:51:30;4.93;;;1.63;;
13204;SDS011;6667;52.634;9.226;2023-04-25T17:54:42;5.10;;;1.67;;
13204;SDS011;6667;52.634;9.226;2023-04-25T17:57:18;3.53;;;1.40;;
13204;SDS011;6667;52.634;9.226;2023-04-25T18:00:04;5.33;;;1.70;;
13204;SDS011;6667;52.634;9.226;2023-04-25T18:09:55;5.27;;;1.50;;
13204;SDS011;6667;52.634;9.226;2023-04-25T18:19:59;3.07;;;1.07;;
13204;SDS011;6667;52.634;9.226;2023-04-25T18:32:52;7.60;;;1.67;;
13204;SDS011;6667;52.634;9.226;2023-04-25T18:45:28;3.67;;;1.60;;
13204;SDS011;6667;52.634;9.226;2023-04-25T18:51:24;5.23;;;1.53;;
13204;SDS011;6667;52.634;9.226;2023-04-25T18:53:56;4.43;;;1.20;;
13204;SDS011;6667;52.634;9.226;2023-04-25T18:57:02;6.07;;;1.87;;
13204;SDS011;6667;52.634;9.226;2023-04-25T20:15:48;4.00;;;1.47;;
13204;SDS011;6667;52.634;9.226;2023-04-25T20:53:21;4.27;;;1.50;;
13204;SDS011;6667;52.634;9.226;2023-04-25T21:06:23;3.97;;;1.73;;
